»·PEaware :: N15JG KSNA-KBUR

N15JG :: KSNA-KBUR

FLIGHT INFORMATION

Flight Status: Arrived
Operator: Privately registered:
United States
More flights under this callsign
Pilot: Anonymous 11047 (11047)
Aircraft: CESSNA 172 SKYHAWK
(C172)
More flights by this aircraft type
Origin: KSNA John Wayne-Orange Co
United States
Destination: KBUR Bob Hope-Burbank
United States
More flights between these airports :: More routes between these airports
Route: SLI V23 POPPR SMO125R SMO SMO311R SILEX
File this flight plan on PilotEdge
Remarks: I-3 rating. TEC route CSTN1.
Altitude:
(Current/Filed)
4,000ft
Speed:
(Current/Filed)
110kts
Departed: 04-Apr-17 11:30 AM
Arrived: 04-Apr-17 12:11 PM
Distance/Time
Traveled:
40nm/0:41
Distance/Time
To Go:
Arrived

Flight Plot

Page will automatically refresh every two minutes.


Map Options




Map Legend


Flown Route
Filed Route
Departure Airport
Arrival Airport
Navaid (VOR, NDB)
Fix

Horizontal Profiles

Position Reports

Time Latitude Longitude Heading Altitude Ground
Speed
04-Apr-17 11:21 33.676719 -117.870547 115 60ft 0kts
04-Apr-17 11:22 33.676719 -117.870547 115 60ft 0kts
04-Apr-17 11:23 33.676719 -117.870547 115 60ft 0kts
04-Apr-17 11:24 33.676719 -117.870547 115 60ft 0kts
04-Apr-17 11:25 33.676719 -117.870547 115 60ft 0kts
04-Apr-17 11:26 33.676558 -117.870241 121 60ft 6kts
04-Apr-17 11:27 33.678874 -117.868287 24 60ft 10kts
04-Apr-17 11:28 33.681252 -117.866607 99 60ft 0kts
04-Apr-17 11:29 33.681252 -117.866607 99 60ft 0kts
04-Apr-17 11:30 33.681247 -117.866566 99 60ft 4kts
04-Apr-17 11:31 33.668411 -117.873880 210 318ft 92kts
04-Apr-17 11:32 33.652925 -117.895265 232 1306ft 86kts
04-Apr-17 11:33 33.638805 -117.918212 233 2205ft 87kts
04-Apr-17 11:34 33.627941 -117.939894 289 2825ft 99kts
04-Apr-17 11:35 33.636755 -117.956917 299 3471ft 86kts
04-Apr-17 11:36 33.650472 -117.982377 301 3993ft 106kts
04-Apr-17 11:37 33.666276 -118.013239 300 4087ft 107kts
04-Apr-17 11:38 33.683360 -118.044989 303 3950ft 112kts
04-Apr-17 11:39 33.699110 -118.075771 301 4001ft 106kts
04-Apr-17 11:40 33.715359 -118.106691 300 4011ft 111kts
04-Apr-17 11:41 33.731771 -118.139075 302 4017ft 110kts
04-Apr-17 11:42 33.747039 -118.170600 302 3963ft 113kts
04-Apr-17 11:43 33.763075 -118.201013 299 4033ft 107kts
04-Apr-17 11:44 33.781818 -118.227007 324 4047ft 112kts
04-Apr-17 11:45 33.804300 -118.249036 321 4006ft 110kts
04-Apr-17 11:46 33.825862 -118.271488 320 4023ft 107kts
04-Apr-17 11:47 33.847620 -118.293880 325 3960ft 107kts
04-Apr-17 11:48 33.868651 -118.314672 315 4039ft 107kts
04-Apr-17 11:49 33.890048 -118.335099 321 4044ft 110kts
04-Apr-17 11:50 33.911069 -118.358622 315 3975ft 111kts
04-Apr-17 11:51 33.933039 -118.381182 322 3982ft 107kts
04-Apr-17 11:52 33.956447 -118.402548 320 3975ft 108kts
04-Apr-17 11:53 33.978817 -118.425414 321 4010ft 108kts
04-Apr-17 11:54 34.001933 -118.448382 329 3966ft 111kts
04-Apr-17 11:55 34.026388 -118.469019 322 3997ft 109kts
04-Apr-17 11:56 34.050850 -118.489669 329 3965ft 108kts
04-Apr-17 11:57 34.075363 -118.509014 327 3965ft 108kts
04-Apr-17 11:58 34.097956 -118.528845 312 4010ft 107kts
04-Apr-17 11:59 34.114252 -118.551162 311 3931ft 111kts
04-Apr-17 12:00 34.133463 -118.577643 311 3921ft 106kts
04-Apr-17 12:01 34.152360 -118.602600 311 4011ft 104kts
04-Apr-17 12:02 34.171378 -118.627584 312 4012ft 107kts
04-Apr-17 12:03 34.194713 -118.624639 53 4013ft 109kts
04-Apr-17 12:04 34.204576 -118.595287 102 3720ft 108kts
04-Apr-17 12:05 34.199117 -118.562336 101 3176ft 105kts
04-Apr-17 12:06 34.199276 -118.529641 89 2967ft 105kts
04-Apr-17 12:07 34.199642 -118.495209 92 2700ft 119kts
04-Apr-17 12:08 34.198733 -118.460471 91 2184ft 104kts
04-Apr-17 12:09 34.198467 -118.429670 91 1816ft 94kts
04-Apr-17 12:10 34.198165 -118.399760 91 1391ft 95kts
04-Apr-17 12:11 34.197984 -118.374099 90 919ft 78kts
04-Apr-17 12:12 34.197398 -118.360273 170 780ft 7kts
04-Apr-17 12:13 34.196941 -118.360215 148 780ft 0kts
04-Apr-17 12:14 34.196297 -118.357915 178 780ft 10kts
04-Apr-17 12:15 34.195923 -118.357543 104 780ft 0kts
04-Apr-17 12:16 34.195923 -118.357543 104 780ft 0kts

Navigation Log

Ident Type
1. KSNA Airport
2. SLI Navaid
3. POPPR Fix
4. SMO Navaid
5. SILEX Fix
6. KBUR Airport